Terminal Aerodrome Forecast
Issued by NWS

Home | Current Version | Previous Version | Text Only | Print | Product List | Glossary On
Versions: 1 2 3 4 5 6 7 8 9 10 11 12 13 14 15 16 17
000
FTUS46 KPDT 052320
TAFALW
TAF
KALW 052320Z 0600/0624 34007KT P6SM VCSH SCT040 BKN100
      TEMPO 0601/0604 VRB20G30KT 5SM -TSRA BKN035CB OVC070
     FM060600 14007KT P6SM SCT050 OVC100
     FM061200 17005KT P6SM BKN100
     FM061600 20007KT P6SM SCT100 BKN200
     FM062100 35008KT P6SM SCT200=

USA.gov is the U.S. government's official web portal to all federal, state and local government web resources and services.